Serra Talhada, Brazil
Current Conditions -  °F | °C
As of 7:00 AM on Wednesday 26 Nov 2014 (Local Time) from SBJU Reporting Station
Broken Clouds Broken Clouds  
Wind Chill: 79°   Ceiling: 8000
Heat Index: 82°   Visibility: 6mi
Dew Point: 75°   Wind: 5mph
Humidity: 89%   Direction: 110°ESE
Pressure: 30"   Gusts: NA
Location:  7.99°S, 38.3°W
Report Text: SBJU 261000Z 11004KT 9999 FEW013 SCT018 BKN080 26/24 Q1016
Loading
Personal Weather Stations






























Interactive Weather Map New forecast layout! Learn more

10-Day Weather Forecast

Advertisements
Track Severe Weather on mobile